sensor_id;sensor_type;location;lat;lon;timestamp;temperature;humidity
56436;DHT22;42335;44.872;20.658;2022-07-19T10:31:37;870.50;793.60
56436;DHT22;42335;44.872;20.658;2022-07-19T10:34:06;845.70;793.60
56436;DHT22;42335;44.872;20.658;2022-07-19T10:36:39;845.50;768.00
56436;DHT22;42335;44.872;20.658;2022-07-19T10:39:28;845.70;793.60
56436;DHT22;42335;44.872;20.658;2022-07-19T10:42:15;845.70;768.00
56436;DHT22;42335;44.872;20.658;2022-07-19T10:50:08;845.70;793.60
56436;DHT22;42335;44.872;20.658;2022-07-19T10:52:38;845.70;768.00
56436;DHT22;42335;44.872;20.658;2022-07-19T10:57:53;845.70;768.00
56436;DHT22;42335;44.872;20.658;2022-07-19T11:00:19;845.70;768.00
56436;DHT22;42335;44.872;20.658;2022-07-19T11:02:50;845.60;768.00
56436;DHT22;42335;44.872;20.658;2022-07-19T11:05:27;845.60;768.00
56436;DHT22;42335;44.872;20.658;2022-07-19T11:07:55;845.70;768.00
56436;DHT22;42335;44.872;20.658;2022-07-19T11:10:26;845.70;768.00
56436;DHT22;42335;44.872;20.658;2022-07-19T11:12:53;845.70;768.00
56436;DHT22;42335;44.872;20.658;2022-07-19T11:15:19;845.70;793.60
56436;DHT22;42335;44.872;20.658;2022-07-19T11:17:57;870.40;793.60
56436;DHT22;42335;44.872;20.658;2022-07-19T11:20:29;870.50;793.60
56436;DHT22;42335;44.872;20.658;2022-07-19T11:22:56;870.50;793.60
56436;DHT22;42335;44.872;20.658;2022-07-19T11:25:30;870.60;768.00
56436;DHT22;42335;44.872;20.658;2022-07-19T11:27:58;870.50;768.00
56436;DHT22;42335;44.872;20.658;2022-07-19T11:30:25;845.70;768.00
56436;DHT22;42335;44.872;20.658;2022-07-19T11:32:53;845.50;793.60
56436;DHT22;42335;44.872;20.658;2022-07-19T11:35:19;845.60;819.20
56436;DHT22;42335;44.872;20.658;2022-07-19T11:37:45;845.70;793.60
56436;DHT22;42335;44.872;20.658;2022-07-19T11:40:12;870.40;793.60
56436;DHT22;42335;44.872;20.658;2022-07-19T11:42:41;870.50;768.00
56436;DHT22;42335;44.872;20.658;2022-07-19T11:45:19;870.60;768.00
56436;DHT22;42335;44.872;20.658;2022-07-19T11:47:51;845.70;768.00
56436;DHT22;42335;44.872;20.658;2022-07-19T11:50:19;870.50;793.60
56436;DHT22;42335;44.872;20.658;2022-07-19T11:52:49;870.60;793.60
56436;DHT22;42335;44.872;20.658;2022-07-19T11:55:18;870.70;793.60
56436;DHT22;42335;44.872;20.658;2022-07-19T11:57:44;870.50;793.60
56436;DHT22;42335;44.872;20.658;2022-07-19T12:00:11;870.50;793.60
56436;DHT22;42335;44.872;20.658;2022-07-19T12:03:00;870.60;793.60
56436;DHT22;42335;44.872;20.658;2022-07-19T12:05:37;870.70;793.60
56436;DHT22;42335;44.872;20.658;2022-07-19T12:08:05;870.80;793.60
56436;DHT22;42335;44.872;20.658;2022-07-19T12:10:39;871.10;768.00
56436;DHT22;42335;44.872;20.658;2022-07-19T12:13:08;870.70;793.60
56436;DHT22;42335;44.872;20.658;2022-07-19T12:18:10;870.90;793.60
56436;DHT22;42335;44.872;20.658;2022-07-19T12:20:35;871.00;742.40
56436;DHT22;42335;44.872;20.658;2022-07-19T12:33:11;870.90;768.00
56436;DHT22;42335;44.872;20.658;2022-07-19T12:35:45;870.80;793.60
56436;DHT22;42335;44.872;20.658;2022-07-19T12:38:13;870.90;793.60
56436;DHT22;42335;44.872;20.658;2022-07-19T12:40:41;870.90;768.00
56436;DHT22;42335;44.872;20.658;2022-07-19T12:43:07;870.90;768.00
56436;DHT22;42335;44.872;20.658;2022-07-19T12:45:45;870.90;768.00
56436;DHT22;42335;44.872;20.658;2022-07-19T12:48:13;870.80;768.00
56436;DHT22;42335;44.872;20.658;2022-07-19T12:50:41;870.90;768.00
56436;DHT22;42335;44.872;20.658;2022-07-19T12:53:10;871.00;768.00
56436;DHT22;42335;44.872;20.658;2022-07-19T12:55:37;870.90;768.00
56436;DHT22;42335;44.872;20.658;2022-07-19T12:58:05;870.70;768.00
56436;DHT22;42335;44.872;20.658;2022-07-19T13:00:33;870.80;768.00
56436;DHT22;42335;44.872;20.658;2022-07-19T13:03:01;870.80;768.00
56436;DHT22;42335;44.872;20.658;2022-07-19T13:05:28;870.70;768.00
56436;DHT22;42335;44.872;20.658;2022-07-19T13:07:55;870.70;793.60
56436;DHT22;42335;44.872;20.658;2022-07-19T13:10:21;870.90;793.60
56436;DHT22;42335;44.872;20.658;2022-07-19T13:12:47;871.00;793.60
56436;DHT22;42335;44.872;20.658;2022-07-19T13:15:14;870.80;844.80
56436;DHT22;42335;44.872;20.658;2022-07-19T13:17:39;871.00;793.60
56436;DHT22;42335;44.872;20.658;2022-07-19T13:20:07;871.00;768.00
56436;DHT22;42335;44.872;20.658;2022-07-19T13:22:34;871.00;768.00
56436;DHT22;42335;44.872;20.658;2022-07-19T13:25:00;870.80;742.40
56436;DHT22;42335;44.872;20.658;2022-07-19T13:27:26;870.70;768.00
56436;DHT22;42335;44.872;20.658;2022-07-19T13:29:52;870.70;768.00
56436;DHT22;42335;44.872;20.658;2022-07-19T13:32:17;870.80;768.00
56436;DHT22;42335;44.872;20.658;2022-07-19T13:34:43;870.70;768.00
56436;DHT22;42335;44.872;20.658;2022-07-19T13:37:09;870.80;768.00
56436;DHT22;42335;44.872;20.658;2022-07-19T13:39:34;870.80;768.00
56436;DHT22;42335;44.872;20.658;2022-07-19T13:42:00;870.70;768.00
56436;DHT22;42335;44.872;20.658;2022-07-19T13:44:26;870.70;742.40
56436;DHT22;42335;44.872;20.658;2022-07-19T13:46:51;870.80;768.00
56436;DHT22;42335;44.872;20.658;2022-07-19T13:49:17;870.70;742.40
56436;DHT22;42335;44.872;20.658;2022-07-19T13:51:43;870.80;742.40
56436;DHT22;42335;44.872;20.658;2022-07-19T13:54:09;870.70;768.00
56436;DHT22;42335;44.872;20.658;2022-07-19T13:56:35;870.70;768.00
56436;DHT22;42335;44.872;20.658;2022-07-19T13:59:01;870.90;768.00
56436;DHT22;42335;44.872;20.658;2022-07-19T14:01:27;870.90;768.00
56436;DHT22;42335;44.872;20.658;2022-07-19T14:03:55;871.00;819.20
56436;DHT22;42335;44.872;20.658;2022-07-19T14:06:21;870.90;742.40
56436;DHT22;42335;44.872;20.658;2022-07-19T14:08:47;870.90;742.40
56436;DHT22;42335;44.872;20.658;2022-07-19T14:11:13;870.90;742.40
56436;DHT22;42335;44.872;20.658;2022-07-19T14:13:41;870.80;742.40
